Time,TemperatureF,DewpointF,PressureIn,WindDirection,WindDirectionDegrees,WindSpeedMPH,WindSpeedGustMPH,Humidity,HourlyPrecipIn,Conditions,Clouds,dailyrainin,SoftwareType,DateUTC
2013-03-04 00:01:00,27.0,14.0,-100.00,NNE,20,4.0,5.0,56,0.00,,,-99.99,,2013-03-04 07:01:00,
2013-03-04 00:11:00,26.0,16.0,-100.00,SSE,168,2.0,2.0,64,0.00,,,-99.99,,2013-03-04 07:11:00,
2013-03-04 00:21:00,27.0,15.0,-100.00,SSE,147,1.0,2.0,60,0.00,,,-99.99,,2013-03-04 07:21:00,
2013-03-04 00:31:00,27.0,15.0,-100.00,SSE,147,1.0,2.0,60,0.00,,,-99.99,,2013-03-04 07:31:00,
2013-03-04 00:41:00,26.0,15.0,-100.00,SSE,162,2.0,3.0,63,0.00,,,-99.99,,2013-03-04 07:41:00,
2013-03-04 00:52:00,26.0,15.0,-100.00,SE,144,2.0,3.0,64,0.00,,,-99.99,,2013-03-04 07:52:00,
2013-03-04 01:01:00,26.0,15.0,-100.00,SE,144,2.0,3.0,64,0.00,,,-99.99,,2013-03-04 08:01:00,
2013-03-04 01:11:00,26.0,14.0,-100.00,NNW,346,3.0,4.0,60,0.00,,,-99.99,,2013-03-04 08:11:00,
2013-03-04 01:21:00,25.0,15.0,-100.00,SSE,164,1.0,3.0,63,0.00,,,-99.99,,2013-03-04 08:21:00,
2013-03-04 01:31:00,25.0,15.0,-100.00,SSE,164,1.0,3.0,63,0.00,,,-99.99,,2013-03-04 08:31:00,
2013-03-04 01:41:00,25.0,14.0,-100.00,North,353,3.0,6.0,62,0.00,,,-99.99,,2013-03-04 08:41:00,
2013-03-04 01:52:00,25.0,14.0,-100.00,North,353,3.0,6.0,62,0.00,,,-99.99,,2013-03-04 08:52:00,
2013-03-04 02:01:00,25.0,14.0,-100.00,North,353,3.0,6.0,62,0.00,,,-99.99,,2013-03-04 09:01:00,
2013-03-04 02:11:00,24.0,14.0,-100.00,South,185,0.0,1.0,65,0.00,,,-99.99,,2013-03-04 09:11:00,
2013-03-04 02:21:00,24.0,14.0,-100.00,SSW,208,0.0,1.0,66,0.00,,,-99.99,,2013-03-04 09:21:00,
2013-03-04 02:31:00,24.0,14.0,-100.00,SSW,208,0.0,1.0,66,0.00,,,-99.99,,2013-03-04 09:31:00,
2013-03-04 02:41:00,23.0,14.0,-100.00,SSE,160,1.0,2.0,69,0.00,,,-99.99,,2013-03-04 09:41:00,
2013-03-04 02:52:00,22.0,14.0,-100.00,SSE,162,3.0,4.0,71,0.00,,,-99.99,,2013-03-04 09:52:00,
2013-03-04 03:01:00,22.0,14.0,-100.00,SSE,162,3.0,4.0,71,0.00,,,-99.99,,2013-03-04 10:01:00,
2013-03-04 03:11:00,23.0,13.0,-100.00,North,349,3.0,6.0,66,0.00,,,-99.99,,2013-03-04 10:11:00,
2013-03-04 03:21:00,23.0,13.0,-100.00,NNW,333,4.0,9.0,66,0.00,,,-99.99,,2013-03-04 10:21:00,
2013-03-04 03:31:00,23.0,13.0,-100.00,NNW,333,4.0,9.0,66,0.00,,,-99.99,,2013-03-04 10:31:00,
2013-03-04 03:41:00,24.0,13.0,-100.00,NNW,342,4.0,9.0,64,0.00,,,-99.99,,2013-03-04 10:41:00,
2013-03-04 03:52:00,24.0,13.0,-100.00,North,354,5.0,12.0,64,0.00,,,-99.99,,2013-03-04 10:52:00,
2013-03-04 04:01:00,24.0,13.0,-100.00,North,354,5.0,12.0,64,0.00,,,-99.99,,2013-03-04 11:01:00,
2013-03-04 04:11:00,24.0,13.0,-100.00,NNE,14,4.0,7.0,63,0.00,,,-99.99,,2013-03-04 11:11:00,
2013-03-04 04:21:00,22.0,13.0,-100.00,NNE,27,5.0,9.0,67,0.00,,,-99.99,,2013-03-04 11:21:00,
2013-03-04 04:31:00,22.0,13.0,-100.00,NNE,27,5.0,9.0,67,0.00,,,-99.99,,2013-03-04 11:31:00,
2013-03-04 04:41:00,22.0,13.0,-100.00,NNE,16,5.0,7.0,67,0.00,,,-99.99,,2013-03-04 11:41:00,
2013-03-04 04:52:00,22.0,13.0,-100.00,North,7,7.0,10.0,67,0.00,,,-99.99,,2013-03-04 11:52:00,
2013-03-04 05:01:00,22.0,13.0,-100.00,North,7,7.0,10.0,67,0.00,,,-99.99,,2013-03-04 12:01:00,
2013-03-04 05:11:00,23.0,13.0,-100.00,NNE,23,4.0,8.0,66,0.00,,,-99.99,,2013-03-04 12:11:00,
2013-03-04 05:22:00,22.0,13.0,-100.00,NNW,344,4.0,6.0,68,0.00,,,-99.99,,2013-03-04 12:22:00,
2013-03-04 05:32:00,22.0,13.0,-100.00,NNW,344,4.0,6.0,68,0.00,,,-99.99,,2013-03-04 12:32:00,
2013-03-04 05:42:00,22.0,13.0,-100.00,North,3,6.0,8.0,67,0.00,,,-99.99,,2013-03-04 12:42:00,
2013-03-04 05:52:00,22.0,13.0,-100.00,North,8,7.0,9.0,68,0.00,,,-99.99,,2013-03-04 12:52:00,
2013-03-04 06:02:00,22.0,13.0,-100.00,North,8,7.0,9.0,68,0.00,,,-99.99,,2013-03-04 13:02:00,
2013-03-04 06:11:00,22.0,13.0,-100.00,North,11,7.0,12.0,67,0.00,,,-99.99,,2013-03-04 13:11:00,
2013-03-04 06:21:00,21.0,13.0,-100.00,North,353,4.0,7.0,68,0.00,,,-99.99,,2013-03-04 13:21:00,
2013-03-04 06:31:00,21.0,13.0,-100.00,North,353,4.0,7.0,68,0.00,,,-99.99,,2013-03-04 13:31:00,
2013-03-04 06:41:00,20.0,13.0,-100.00,NNW,344,4.0,6.0,71,0.00,,,-99.99,,2013-03-04 13:41:00,
2013-03-04 06:52:00,21.0,12.0,-100.00,North,352,5.0,9.0,69,0.00,,,-99.99,,2013-03-04 13:52:00,
2013-03-04 07:01:00,21.0,12.0,-100.00,North,352,5.0,9.0,69,0.00,,,-99.99,,2013-03-04 14:01:00,
2013-03-04 07:11:00,21.0,12.0,-100.00,North,359,5.0,8.0,69,0.00,,,-99.99,,2013-03-04 14:11:00,
2013-03-04 07:22:00,21.0,12.0,-100.00,North,359,5.0,7.0,69,0.00,,,-99.99,,2013-03-04 14:22:00,
2013-03-04 07:31:00,21.0,12.0,-100.00,North,359,5.0,7.0,69,0.00,,,-99.99,,2013-03-04 14:31:00,
2013-03-04 07:41:00,20.0,12.0,-100.00,NNE,18,5.0,8.0,69,0.00,,,-99.99,,2013-03-04 14:41:00,
2013-03-04 07:52:00,22.0,12.0,-100.00,NNE,17,7.0,12.0,67,0.00,,,-99.99,,2013-03-04 14:52:00,
2013-03-04 08:01:00,22.0,12.0,-100.00,NNE,17,7.0,12.0,67,0.00,,,-99.99,,2013-03-04 15:01:00,
2013-03-04 08:11:00,22.0,12.0,-100.00,NNE,21,6.0,8.0,67,0.00,,,-99.99,,2013-03-04 15:11:00,
2013-03-04 08:21:00,21.0,12.0,-100.00,North,3,7.0,11.0,69,0.00,,,-99.99,,2013-03-04 15:21:00,
2013-03-04 08:31:00,21.0,12.0,-100.00,North,3,7.0,11.0,69,0.00,,,-99.99,,2013-03-04 15:31:00,
2013-03-04 08:41:00,21.0,12.0,-100.00,North,4,6.0,9.0,68,0.00,,,-99.99,,2013-03-04 15:41:00,
2013-03-04 08:52:00,22.0,12.0,-100.00,North,0,5.0,7.0,66,0.00,,,-99.99,,2013-03-04 15:52:00,
2013-03-04 09:02:00,22.0,12.0,-100.00,North,0,5.0,7.0,66,0.00,,,-99.99,,2013-03-04 16:02:00,
2013-03-04 09:11:00,23.0,13.0,-100.00,NNE,18,6.0,9.0,64,0.00,,,-99.99,,2013-03-04 16:11:00,
2013-03-04 09:21:00,24.0,13.0,-100.00,North,8,5.0,8.0,63,0.00,,,-99.99,,2013-03-04 16:21:00,
2013-03-04 09:31:00,24.0,13.0,-100.00,North,8,5.0,8.0,63,0.00,,,-99.99,,2013-03-04 16:31:00,
2013-03-04 09:41:00,25.0,13.0,-100.00,North,6,6.0,9.0,60,0.00,,,-99.99,,2013-03-04 16:41:00,
2013-03-04 09:52:00,26.0,13.0,-100.00,NNE,13,5.0,8.0,57,0.00,,,-99.99,,2013-03-04 16:52:00,
2013-03-04 10:01:00,26.0,13.0,-100.00,NNE,13,5.0,8.0,57,0.00,,,-99.99,,2013-03-04 17:01:00,
2013-03-04 10:11:00,28.0,14.0,-100.00,NNE,20,3.0,6.0,54,0.00,,,-99.99,,2013-03-04 17:11:00,
2013-03-04 10:21:00,31.0,14.0,-100.00,North,360,1.0,3.0,48,0.00,,,-99.99,,2013-03-04 17:21:00,
2013-03-04 10:31:00,31.0,14.0,-100.00,North,360,1.0,3.0,48,0.00,,,-99.99,,2013-03-04 17:31:00,
2013-03-04 10:42:00,33.0,13.0,-100.00,NNE,13,2.0,5.0,43,0.00,,,-99.99,,2013-03-04 17:42:00,
2013-03-04 10:52:00,35.0,13.0,-100.00,NNW,333,3.0,6.0,40,0.00,,,-99.99,,2013-03-04 17:52:00,
2013-03-04 11:01:00,35.0,13.0,-100.00,NNW,333,3.0,6.0,40,0.00,,,-99.99,,2013-03-04 18:01:00,
2013-03-04 11:11:00,34.0,15.0,-100.00,SSE,160,8.0,9.0,46,0.00,,,-99.99,,2013-03-04 18:11:00,
2013-03-04 11:21:00,35.0,17.0,-100.00,SSE,168,4.0,6.0,48,0.00,,,-99.99,,2013-03-04 18:21:00,
2013-03-04 11:31:00,35.0,17.0,-100.00,SSE,168,4.0,6.0,48,0.00,,,-99.99,,2013-03-04 18:31:00,
2013-03-04 11:42:00,36.0,18.0,-100.00,SSE,168,5.0,7.0,47,0.00,,,-99.99,,2013-03-04 18:42:00,
2013-03-04 11:52:00,36.0,16.0,-100.00,SSE,155,6.0,8.0,42,0.00,,,-99.99,,2013-03-04 18:52:00,
2013-03-04 12:01:00,36.0,16.0,-100.00,SSE,155,6.0,8.0,42,0.00,,,-99.99,,2013-03-04 19:01:00,
2013-03-04 12:11:00,37.0,15.0,-100.00,SSE,157,5.0,9.0,41,0.00,,,-99.99,,2013-03-04 19:11:00,
2013-03-04 12:21:00,36.0,17.0,-100.00,SSE,158,7.0,9.0,44,0.00,,,-99.99,,2013-03-04 19:21:00,
2013-03-04 12:31:00,36.0,17.0,-100.00,SSE,158,7.0,9.0,44,0.00,,,-99.99,,2013-03-04 19:31:00,
2013-03-04 12:41:00,37.0,15.0,-100.00,SSE,150,6.0,9.0,40,0.00,,,-99.99,,2013-03-04 19:41:00,
2013-03-04 12:52:00,38.0,17.0,-100.00,SSE,161,6.0,9.0,43,0.00,,,-99.99,,2013-03-04 19:52:00,
2013-03-04 13:01:00,38.0,17.0,-100.00,SSE,161,6.0,9.0,43,0.00,,,-99.99,,2013-03-04 20:01:00,
2013-03-04 13:11:00,37.0,22.0,-100.00,South,178,4.0,8.0,55,0.00,,,-99.99,,2013-03-04 20:11:00,
2013-03-04 13:21:00,37.0,21.0,-100.00,SSE,152,4.0,6.0,53,0.00,,,-99.99,,2013-03-04 20:21:00,
2013-03-04 13:31:00,37.0,21.0,-100.00,SSE,152,4.0,6.0,53,0.00,,,-99.99,,2013-03-04 20:31:00,
2013-03-04 13:41:00,38.0,20.0,-100.00,SSE,157,4.0,8.0,48,0.00,,,-99.99,,2013-03-04 20:41:00,
2013-03-04 13:52:00,38.0,16.0,-100.00,South,175,4.0,6.0,41,0.00,,,-99.99,,2013-03-04 20:52:00,
2013-03-04 14:01:00,38.0,16.0,-100.00,South,175,4.0,6.0,41,0.00,,,-99.99,,2013-03-04 21:01:00,
2013-03-04 14:11:00,37.0,16.0,-100.00,South,188,4.0,7.0,41,0.00,,,-99.99,,2013-03-04 21:11:00,
2013-03-04 14:21:00,38.0,15.0,-100.00,SSE,161,5.0,7.0,40,0.00,,,-99.99,,2013-03-04 21:21:00,
2013-03-04 14:31:00,38.0,15.0,-100.00,SSE,161,5.0,7.0,40,0.00,,,-99.99,,2013-03-04 21:31:00,
2013-03-04 14:42:00,37.0,11.0,-100.00,SSE,168,4.0,8.0,34,0.00,,,-99.99,,2013-03-04 21:42:00,
2013-03-04 14:52:00,37.0,10.0,-100.00,SE,144,6.0,10.0,32,0.00,,,-99.99,,2013-03-04 21:52:00,
2013-03-04 15:01:00,37.0,10.0,-100.00,SE,144,6.0,10.0,32,0.00,,,-99.99,,2013-03-04 22:01:00,
2013-03-04 15:11:00,38.0,13.0,-100.00,SSE,162,4.0,6.0,36,0.00,,,-99.99,,2013-03-04 22:11:00,
2013-03-04 15:21:00,38.0,15.0,-100.00,SE,138,4.0,6.0,39,0.00,,,-99.99,,2013-03-04 22:21:00,
2013-03-04 15:31:00,38.0,15.0,-100.00,SE,138,4.0,6.0,39,0.00,,,-99.99,,2013-03-04 22:31:00,
2013-03-04 15:42:00,38.0,16.0,-100.00,SSE,154,7.0,12.0,41,0.00,,,-99.99,,2013-03-04 22:42:00,
2013-03-04 15:52:00,38.0,18.0,-100.00,South,174,4.0,7.0,44,0.00,,,-99.99,,2013-03-04 22:52:00,
2013-03-04 16:01:00,38.0,18.0,-100.00,South,174,4.0,7.0,44,0.00,,,-99.99,,2013-03-04 23:01:00,
2013-03-04 16:11:00,38.0,18.0,-100.00,SSE,158,6.0,8.0,44,0.00,,,-99.99,,2013-03-04 23:11:00,
2013-03-04 16:21:00,38.0,16.0,-100.00,SSE,168,4.0,7.0,41,0.00,,,-99.99,,2013-03-04 23:21:00,
2013-03-04 16:31:00,38.0,16.0,-100.00,SSE,168,4.0,7.0,41,0.00,,,-99.99,,2013-03-04 23:31:00,
2013-03-04 16:41:00,38.0,17.0,-100.00,SSE,161,4.0,6.0,42,0.00,,,-99.99,,2013-03-04 23:41:00,
2013-03-04 16:52:00,38.0,18.0,-100.00,South,175,2.0,5.0,44,0.00,,,-99.99,,2013-03-04 23:52:00,
2013-03-04 17:01:00,38.0,18.0,-100.00,South,175,2.0,5.0,44,0.00,,,-99.99,,2013-03-05 00:01:00,
2013-03-04 17:11:00,38.0,17.0,-100.00,SE,140,1.0,3.0,43,0.00,,,-99.99,,2013-03-05 00:11:00,
2013-03-04 17:21:00,38.0,17.0,-100.00,SSE,155,2.0,4.0,42,0.00,,,-99.99,,2013-03-05 00:21:00,
2013-03-04 17:32:00,38.0,17.0,-100.00,SSE,155,2.0,4.0,42,0.00,,,-99.99,,2013-03-05 00:32:00,
2013-03-04 17:41:00,38.0,17.0,-100.00,SSE,165,3.0,6.0,43,0.00,,,-99.99,,2013-03-05 00:41:00,
2013-03-04 17:52:00,38.0,16.0,-100.00,SSE,162,2.0,3.0,41,0.00,,,-99.99,,2013-03-05 00:52:00,
2013-03-04 18:01:00,38.0,16.0,-100.00,SSE,162,2.0,3.0,41,0.00,,,-99.99,,2013-03-05 01:01:00,
2013-03-04 18:11:00,38.0,16.0,-100.00,SE,144,1.0,2.0,41,0.00,,,-99.99,,2013-03-05 01:11:00,
2013-03-04 18:21:00,37.0,16.0,-100.00,SSW,192,0.0,0.0,41,0.00,,,-99.99,,2013-03-05 01:21:00,
2013-03-04 18:32:00,37.0,16.0,-100.00,SSW,192,0.0,0.0,41,0.00,,,-99.99,,2013-03-05 01:32:00,
2013-03-04 18:41:00,36.0,16.0,-100.00,South,171,1.0,2.0,42,0.00,,,-99.99,,2013-03-05 01:41:00,
2013-03-04 18:52:00,36.0,20.0,-100.00,SE,141,0.0,1.0,53,0.00,,,-99.99,,2013-03-05 01:52:00,
2013-03-04 19:01:00,36.0,20.0,-100.00,SE,141,0.0,1.0,53,0.00,,,-99.99,,2013-03-05 02:01:00,
2013-03-04 19:11:00,34.0,20.0,-100.00,SE,136,1.0,2.0,57,0.00,,,-99.99,,2013-03-05 02:11:00,
2013-03-04 19:21:00,32.0,19.0,-100.00,SSE,161,0.0,0.0,59,0.00,,,-99.99,,2013-03-05 02:21:00,
2013-03-04 19:31:00,32.0,19.0,-100.00,SSE,161,0.0,0.0,59,0.00,,,-99.99,,2013-03-05 02:31:00,
2013-03-04 19:41:00,31.0,19.0,-100.00,South,181,0.0,1.0,61,0.00,,,-99.99,,2013-03-05 02:41:00,
2013-03-04 19:52:00,30.0,19.0,-100.00,WSW,246,0.0,0.0,62,0.00,,,-99.99,,2013-03-05 02:52:00,
2013-03-04 20:01:00,30.0,19.0,-100.00,WSW,246,0.0,0.0,62,0.00,,,-99.99,,2013-03-05 03:01:00,
2013-03-04 20:11:00,29.0,19.0,-100.00,SSE,152,1.0,3.0,65,0.00,,,-99.99,,2013-03-05 03:11:00,
2013-03-04 20:21:00,29.0,19.0,-100.00,South,178,0.0,1.0,65,0.00,,,-99.99,,2013-03-05 03:21:00,
2013-03-04 20:31:00,29.0,19.0,-100.00,South,178,0.0,1.0,65,0.00,,,-99.99,,2013-03-05 03:31:00,
2013-03-04 20:41:00,29.0,19.0,-100.00,South,182,0.0,1.0,65,0.00,,,-99.99,,2013-03-05 03:41:00,
2013-03-04 20:52:00,29.0,18.0,-100.00,SSW,202,0.0,1.0,65,0.00,,,-99.99,,2013-03-05 03:52:00,
2013-03-04 21:01:00,29.0,18.0,-100.00,SSW,202,0.0,1.0,65,0.00,,,-99.99,,2013-03-05 04:01:00,
2013-03-04 21:11:00,28.0,19.0,-100.00,SSE,165,0.0,1.0,68,0.00,,,-99.99,,2013-03-05 04:11:00,
2013-03-04 21:21:00,28.0,18.0,-100.00,SSW,199,0.0,1.0,65,0.00,,,-99.99,,2013-03-05 04:21:00,
2013-03-04 21:31:00,28.0,18.0,-100.00,SSW,199,0.0,1.0,65,0.00,,,-99.99,,2013-03-05 04:31:00,
2013-03-04 21:41:00,28.0,19.0,-100.00,South,171,2.0,3.0,69,0.00,,,-99.99,,2013-03-05 04:41:00,
2013-03-04 21:52:00,28.0,18.0,-100.00,South,174,1.0,2.0,68,0.00,,,-99.99,,2013-03-05 04:52:00,
2013-03-04 22:01:00,28.0,18.0,-100.00,South,174,1.0,2.0,68,0.00,,,-99.99,,2013-03-05 05:01:00,
2013-03-04 22:11:00,27.0,18.0,-100.00,South,189,0.0,2.0,68,0.00,,,-99.99,,2013-03-05 05:11:00,
2013-03-04 22:22:00,27.0,18.0,-100.00,SSE,155,3.0,4.0,68,0.00,,,-99.99,,2013-03-05 05:22:00,
2013-03-04 22:31:00,27.0,18.0,-100.00,SSE,155,3.0,4.0,68,0.00,,,-99.99,,2013-03-05 05:31:00,
2013-03-04 22:41:00,27.0,18.0,-100.00,SSW,200,1.0,1.0,70,0.00,,,-99.99,,2013-03-05 05:41:00,
2013-03-04 22:52:00,28.0,17.0,-100.00,SSW,198,1.0,3.0,65,0.00,,,-99.99,,2013-03-05 05:52:00,
2013-03-04 23:01:00,28.0,17.0,-100.00,SSW,198,1.0,3.0,65,0.00,,,-99.99,,2013-03-05 06:01:00,
2013-03-04 23:11:00,27.0,17.0,-100.00,South,185,1.0,3.0,67,0.00,,,-99.99,,2013-03-05 06:11:00,
2013-03-04 23:22:00,27.0,17.0,-100.00,SE,141,2.0,3.0,66,0.00,,,-99.99,,2013-03-05 06:22:00,
2013-03-04 23:31:00,27.0,17.0,-100.00,SE,141,2.0,3.0,66,0.00,,,-99.99,,2013-03-05 06:31:00,
2013-03-04 23:41:00,27.0,17.0,-100.00,SSE,167,1.0,2.0,66,0.00,,,-99.99,,2013-03-05 06:41:00,
2013-03-04 23:52:00,27.0,16.0,-100.00,South,182,2.0,4.0,63,0.00,,,-99.99,,2013-03-05 06:52:00,